Pagina principale
METAR-TAF:

METAR-TAF

Aeroporti :

Aeroporto Internazionale del Bahrein

Bahrain, Bahrain

latitudine: 26-16N, longitudine: 050-39E, altezza: 2 m

Osservazione

Il bollettino è stato emesso 27 minuti fa, alle 23:00 UTC
Vento 5 kt da est/sud-est
Temperature 30°C
Umidità 66%
Pressione 1002 hPa
Visibilità 10 km o più
nessuna nube inferiore a 1500 m e nessun cumulonembo

METAR: OBBI 242300Z 12005KT CAVOK 30/23 Q1002 NOSIG

Ora: 02:27 (23:27 UTC)

Previsione

Il bollettino è stato emesso 6 ore e 27 minuti fa, alle 17:00 UTC
Previsione valida dal 24 alle 18 UTC al 26 alle 00 UTC
Vento 10 kt da est/sud-est
Visibilità: 7000 m

TAF: OBBI 241700Z 2418/2600 12010KT 7000 NSC

Osservazioni e previsioni meteorologiche di più di 4000 aeroporti (messaggi METAR e TAF).

Le stazioni disponibili sono rappresentate dai dischi gialli e rossi sulla carta.

Puntare il mouse per vedere il nome della stazione.

Clicca sopra per visualizzare le osservazioni e previsioni meteorologiche.

Per cambiare la mappa : fare clic sui pulsanti verdi con una croce nera per ingrandire, il pulsante verde con un trattino per diminuire, o sulla freccia verde per le mappe adiacenti.


METAR-TAF: